createdAt,value
2023-02-16T00:02:19.638Z,0.29
2023-02-16T00:06:27.993Z,0.05
2023-02-16T00:10:37.948Z,-0.12
2023-02-16T00:14:45.720Z,-0.18
2023-02-16T00:18:54.036Z,-0.20
2023-02-16T00:23:02.072Z,-0.19
2023-02-16T00:27:18.934Z,-0.17
2023-02-16T00:31:29.361Z,-0.17
2023-02-16T00:35:38.238Z,-0.20
2023-02-16T00:39:46.433Z,-0.32
2023-02-16T00:43:55.244Z,-0.47
2023-02-16T00:48:02.891Z,-0.57
2023-02-16T00:52:33.026Z,-0.59
2023-02-16T00:56:45.292Z,-0.57
2023-02-16T01:00:55.373Z,-0.53
2023-02-16T01:05:03.927Z,-0.50
2023-02-16T01:09:33.765Z,-0.54
2023-02-16T01:13:45.890Z,-0.63
2023-02-16T01:17:56.351Z,-0.68
2023-02-16T01:22:04.161Z,-0.75
2023-02-16T01:26:18.249Z,-0.77
2023-02-16T01:30:27.372Z,-0.77
2023-02-16T01:34:35.256Z,-0.79
2023-02-16T01:38:42.905Z,-0.77
2023-02-16T01:42:55.202Z,-0.76
2023-02-16T01:47:08.572Z,-0.76
2023-02-16T01:51:21.683Z,-0.78
2023-02-16T01:55:32.981Z,-0.82
2023-02-16T01:59:57.047Z,-0.89
2023-02-16T02:04:41.175Z,-0.95
2023-02-16T02:08:50.952Z,-0.99
2023-02-16T02:13:01.494Z,-0.99
2023-02-16T02:17:11.654Z,-0.97
2023-02-16T02:22:00.540Z,-0.98
2023-02-16T02:26:54.866Z,-1.06
2023-02-16T02:31:08.002Z,-1.14
2023-02-16T02:35:41.638Z,-1.18
2023-02-16T02:39:56.333Z,-1.27
2023-02-16T02:44:07.312Z,-1.29
2023-02-16T02:48:15.200Z,-1.33
2023-02-16T02:52:23.175Z,-1.27
2023-02-16T02:56:51.142Z,-1.20
2023-02-16T03:00:59.484Z,-1.14
2023-02-16T03:05:11.365Z,-1.11
2023-02-16T03:09:20.900Z,-1.10
2023-02-16T03:13:34.164Z,-1.10
2023-02-16T03:17:59.939Z,-1.14
2023-02-16T03:22:25.169Z,-1.20
2023-02-16T03:26:51.408Z,-1.25
2023-02-16T03:30:59.687Z,-1.27
2023-02-16T03:35:07.753Z,-1.25
2023-02-16T03:39:16.197Z,-1.21
2023-02-16T03:43:28.023Z,-1.15
2023-02-16T03:47:36.377Z,-1.09
2023-02-16T03:51:44.203Z,-1.05
2023-02-16T03:55:52.409Z,-1.10
2023-02-16T04:00:00.765Z,-1.16
2023-02-16T04:04:08.635Z,-1.15
2023-02-16T04:08:16.468Z,-1.12
2023-02-16T04:12:38.393Z,-1.01
2023-02-16T04:16:46.625Z,-0.94
2023-02-16T04:20:54.654Z,-0.95
2023-02-16T04:25:02.274Z,-0.95
2023-02-16T04:29:10.342Z,-0.99
2023-02-16T04:33:18.130Z,-1.04
2023-02-16T04:37:26.034Z,-1.07
2023-02-16T04:41:33.783Z,-1.04
2023-02-16T04:45:41.822Z,-0.96
2023-02-16T04:49:50.475Z,-0.85
2023-02-16T04:53:58.530Z,-0.71
2023-02-16T04:58:06.245Z,-0.55
2023-02-16T05:02:13.849Z,-0.42
2023-02-16T05:06:22.402Z,-0.32
2023-02-16T05:10:29.966Z,-0.23
2023-02-16T05:14:46.392Z,-0.19
2023-02-16T05:18:58.793Z,-0.17
2023-02-16T05:23:06.783Z,-0.15
2023-02-16T05:27:17.916Z,-0.09
2023-02-16T05:31:26.945Z,0.01
2023-02-16T05:35:36.391Z,0.11
2023-02-16T05:39:45.187Z,0.22
2023-02-16T05:43:54.408Z,0.29
2023-02-16T05:48:02.552Z,0.36
2023-02-16T05:52:11.136Z,0.40
2023-02-16T05:56:22.359Z,0.43
2023-02-16T06:00:33.680Z,0.48
2023-02-16T06:04:40.945Z,0.54
2023-02-16T06:08:48.959Z,0.63
2023-02-16T06:12:57.008Z,0.73
2023-02-16T06:17:04.532Z,0.80
2023-02-16T06:21:13.629Z,0.85
2023-02-16T06:25:21.965Z,0.87
2023-02-16T06:29:29.953Z,0.89
2023-02-16T06:33:38.149Z,0.92
2023-02-16T06:37:45.526Z,0.96
2023-02-16T06:41:54.033Z,1.02
2023-02-16T06:46:02.140Z,1.10
2023-02-16T06:50:14.828Z,1.16
2023-02-16T06:54:22.686Z,1.21
2023-02-16T06:58:30.467Z,1.26
2023-02-16T07:02:38.356Z,1.31
2023-02-16T07:06:47.785Z,1.38
2023-02-16T07:10:56.293Z,1.45
2023-02-16T07:15:04.399Z,1.54
2023-02-16T07:19:18.113Z,1.62
2023-02-16T07:23:30.388Z,1.70
2023-02-16T07:27:38.489Z,1.79
2023-02-16T07:31:46.249Z,1.88
2023-02-16T07:35:54.266Z,1.96
2023-02-16T07:40:04.116Z,2.03
2023-02-16T07:44:12.286Z,2.12
2023-02-16T07:48:20.509Z,2.20
2023-02-16T07:52:31.432Z,2.27
2023-02-16T07:56:40.382Z,2.35
2023-02-16T08:00:48.135Z,2.45
2023-02-16T08:04:56.134Z,2.55
2023-02-16T08:09:09.803Z,2.65
2023-02-16T08:13:17.491Z,2.77
2023-02-16T08:17:25.255Z,2.87
2023-02-16T08:21:34.877Z,2.96
2023-02-16T08:25:42.770Z,3.06
2023-02-16T08:29:51.178Z,3.15
2023-02-16T08:34:00.765Z,3.24
2023-02-16T08:38:09.422Z,3.33
2023-02-16T08:42:17.758Z,3.42
2023-02-16T08:46:25.590Z,3.50
2023-02-16T08:50:33.932Z,3.59
2023-02-16T08:54:42.083Z,3.71
2023-02-16T08:58:50.195Z,3.81
2023-02-16T09:03:02.402Z,3.93
2023-02-16T09:07:10.856Z,4.03
2023-02-16T09:11:19.689Z,4.16
2023-02-16T09:15:27.797Z,4.32
2023-02-16T09:19:36.766Z,4.45
2023-02-16T09:23:48.295Z,4.57
2023-02-16T09:27:57.240Z,4.67
2023-02-16T09:32:06.971Z,4.76
2023-02-16T09:36:15.512Z,4.86
2023-02-16T09:40:23.823Z,4.96
2023-02-16T09:44:38.428Z,5.06
2023-02-16T09:48:49.101Z,5.17
2023-02-16T09:53:04.028Z,5.27
2023-02-16T09:57:17.446Z,5.38
2023-02-16T10:01:31.870Z,5.52
2023-02-16T10:05:47.323Z,5.62
2023-02-16T10:09:55.946Z,5.73
2023-02-16T10:14:08.296Z,5.86
2023-02-16T10:18:22.205Z,5.98
2023-02-16T10:22:36.186Z,6.11
2023-02-16T10:26:47.680Z,6.21
2023-02-16T10:31:03.618Z,6.30
2023-02-16T10:35:17.521Z,6.38
2023-02-16T10:39:30.566Z,6.46
2023-02-16T10:43:47.139Z,6.55
2023-02-16T10:47:55.177Z,6.62
2023-02-16T10:52:04.790Z,6.68
2023-02-16T10:56:49.756Z,6.74
2023-02-16T11:01:00.325Z,6.83
2023-02-16T11:05:33.844Z,6.91
2023-02-16T11:09:43.562Z,7.02
2023-02-16T11:13:58.725Z,7.16
2023-02-16T11:18:10.237Z,7.31
2023-02-16T11:22:31.594Z,7.41
2023-02-16T11:26:40.110Z,7.47
2023-02-16T11:30:47.984Z,7.53
2023-02-16T11:34:56.595Z,7.59
2023-02-16T11:39:07.098Z,7.68
2023-02-16T11:43:20.751Z,7.73
2023-02-16T11:47:31.634Z,7.78
2023-02-16T11:51:39.201Z,7.83
2023-02-16T11:55:49.811Z,7.91
2023-02-16T11:59:58.909Z,7.98
2023-02-16T12:04:17.634Z,8.02
2023-02-16T12:08:37.468Z,8.09
2023-02-16T12:12:53.109Z,8.17
2023-02-16T12:17:08.053Z,8.25
2023-02-16T12:21:25.552Z,8.31
2023-02-16T12:25:38.458Z,8.41
2023-02-16T12:29:54.069Z,8.52
2023-02-16T12:34:09.782Z,8.61
2023-02-16T12:38:24.876Z,8.66
2023-02-16T12:42:53.087Z,8.68
2023-02-16T12:47:06.741Z,8.66
2023-02-16T12:51:17.590Z,8.66
2023-02-16T12:55:29.864Z,8.66
2023-02-16T12:59:43.380Z,8.68
2023-02-16T13:03:54.712Z,8.72
2023-02-16T13:08:08.000Z,8.75
2023-02-16T13:12:23.362Z,8.77
2023-02-16T13:16:39.640Z,8.82
2023-02-16T13:20:51.094Z,8.83
2023-02-16T13:25:37.550Z,8.82
2023-02-16T13:30:04.636Z,8.80
2023-02-16T13:34:27.038Z,8.77
2023-02-16T13:38:49.382Z,8.78
2023-02-16T13:43:28.393Z,8.78
2023-02-16T13:47:39.005Z,8.73
2023-02-16T13:51:47.715Z,8.74
2023-02-16T13:56:17.505Z,8.81
2023-02-16T14:00:33.109Z,8.90
2023-02-16T14:05:08.005Z,9.00
2023-02-16T14:09:51.078Z,9.09
2023-02-16T14:13:58.734Z,9.14
2023-02-16T14:18:27.007Z,9.17
2023-02-16T14:22:42.432Z,9.22
2023-02-16T14:27:01.081Z,9.30
2023-02-16T14:31:15.160Z,9.41
2023-02-16T14:35:25.204Z,9.50
2023-02-16T14:39:36.355Z,9.55
2023-02-16T14:43:46.052Z,9.57
2023-02-16T14:48:01.042Z,9.57
2023-02-16T14:52:36.076Z,9.53
2023-02-16T14:56:46.029Z,9.49
2023-02-16T15:00:57.170Z,9.43
2023-02-16T15:05:20.730Z,9.33
2023-02-16T15:09:32.453Z,9.25
2023-02-16T15:13:43.070Z,9.17
2023-02-16T15:17:53.157Z,9.04
2023-02-16T15:22:19.129Z,8.92
2023-02-16T15:26:29.110Z,8.79
2023-02-16T15:30:39.425Z,8.65
2023-02-16T15:34:48.283Z,8.51
2023-02-16T15:39:01.234Z,8.38
2023-02-16T15:43:17.700Z,8.26
2023-02-16T15:47:27.756Z,8.13
2023-02-16T15:51:38.405Z,8.02
2023-02-16T15:55:48.164Z,7.92
2023-02-16T15:59:57.586Z,7.80
2023-02-16T16:04:09.914Z,7.68
2023-02-16T16:08:18.417Z,7.54
2023-02-16T16:12:27.570Z,7.36
2023-02-16T16:16:38.306Z,7.20
2023-02-16T16:20:46.243Z,7.08
2023-02-16T16:24:54.661Z,6.97
2023-02-16T16:29:03.145Z,6.86
2023-02-16T16:33:15.678Z,6.77
2023-02-16T16:37:29.383Z,6.68
2023-02-16T16:41:37.552Z,6.59
2023-02-16T16:45:46.781Z,6.49
2023-02-16T16:49:57.657Z,6.37
2023-02-16T16:54:08.047Z,6.23
2023-02-16T16:58:17.506Z,6.12
2023-02-16T17:02:25.444Z,5.99
2023-02-16T17:06:32.943Z,5.87
2023-02-16T17:10:43.503Z,5.77
2023-02-16T17:14:51.344Z,5.66
2023-02-16T17:19:00.363Z,5.57
2023-02-16T17:23:08.562Z,5.49
2023-02-16T17:27:16.513Z,5.39
2023-02-16T17:31:24.993Z,5.32
2023-02-16T17:35:33.592Z,5.25
2023-02-16T17:39:41.187Z,5.15
2023-02-16T17:43:49.339Z,5.06
2023-02-16T17:47:57.758Z,4.96
2023-02-16T17:52:07.473Z,4.85
2023-02-16T17:56:16.533Z,4.73
2023-02-16T18:00:25.315Z,4.65
2023-02-16T18:04:33.208Z,4.58
2023-02-16T18:08:41.755Z,4.52
2023-02-16T18:12:50.923Z,4.48
2023-02-16T18:17:01.645Z,4.45
2023-02-16T18:21:11.282Z,4.41
2023-02-16T18:25:19.729Z,4.37
2023-02-16T18:29:27.650Z,4.31
2023-02-16T18:33:35.723Z,4.26
2023-02-16T18:37:44.031Z,4.18
2023-02-16T18:41:52.237Z,4.12
2023-02-16T18:46:06.598Z,4.07
2023-02-16T18:50:15.400Z,4.01
2023-02-16T18:54:23.327Z,3.98
2023-02-16T18:58:30.557Z,3.96
2023-02-16T19:02:41.208Z,3.94
2023-02-16T19:06:50.134Z,3.93
2023-02-16T19:10:59.958Z,3.92
2023-02-16T19:15:09.506Z,3.92
2023-02-16T19:19:18.971Z,3.89
2023-02-16T19:23:27.226Z,3.86
2023-02-16T19:27:35.638Z,3.82
2023-02-16T19:31:43.296Z,3.79
2023-02-16T19:35:51.534Z,3.74
2023-02-16T19:40:00.066Z,3.72
2023-02-16T19:44:08.688Z,3.71
2023-02-16T19:48:18.253Z,3.71
2023-02-16T19:52:26.233Z,3.71
2023-02-16T19:56:33.560Z,3.73
2023-02-16T20:00:42.385Z,3.75
2023-02-16T20:04:51.260Z,3.77
2023-02-16T20:09:00.820Z,3.77
2023-02-16T20:13:10.389Z,3.76
2023-02-16T20:17:18.652Z,3.73
2023-02-16T20:21:28.452Z,3.71
2023-02-16T20:25:38.154Z,3.70
2023-02-16T20:29:46.367Z,3.70
2023-02-16T20:33:54.236Z,3.73
2023-02-16T20:38:01.641Z,3.77
2023-02-16T20:42:09.896Z,3.81
2023-02-16T20:46:18.804Z,3.85
2023-02-16T20:50:27.533Z,3.88
2023-02-16T20:54:35.659Z,3.91
2023-02-16T20:58:45.116Z,3.92
2023-02-16T21:02:53.597Z,3.93
2023-02-16T21:07:01.282Z,3.93
2023-02-16T21:11:09.659Z,3.90
2023-02-16T21:15:18.053Z,3.90
2023-02-16T21:19:25.551Z,3.88
2023-02-16T21:23:33.880Z,3.85
2023-02-16T21:27:41.609Z,3.83
2023-02-16T21:31:49.342Z,3.82
2023-02-16T21:35:56.932Z,3.83
2023-02-16T21:40:22.064Z,3.85
2023-02-16T21:44:30.692Z,3.86
2023-02-16T21:48:48.091Z,3.89
2023-02-16T21:52:58.309Z,3.91
2023-02-16T21:57:06.684Z,3.94
2023-02-16T22:01:15.114Z,3.96
2023-02-16T22:05:23.749Z,3.97
2023-02-16T22:09:31.729Z,3.97
2023-02-16T22:13:42.215Z,3.95
2023-02-16T22:17:51.569Z,3.93
2023-02-16T22:21:59.381Z,3.92
2023-02-16T22:26:09.274Z,3.90
2023-02-16T22:30:17.177Z,3.89
2023-02-16T22:34:25.161Z,3.89
2023-02-16T22:38:33.532Z,3.91
2023-02-16T22:42:41.917Z,3.92
2023-02-16T22:46:49.926Z,3.93
2023-02-16T22:51:05.372Z,3.92
2023-02-16T22:55:13.451Z,3.89
2023-02-16T22:59:21.384Z,3.86
2023-02-16T23:03:29.618Z,3.83
2023-02-16T23:07:38.551Z,3.80
2023-02-16T23:11:46.532Z,3.79
2023-02-16T23:15:54.286Z,3.82
2023-02-16T23:20:02.201Z,3.86
2023-02-16T23:24:11.599Z,3.91
2023-02-16T23:28:20.040Z,3.97
2023-02-16T23:32:28.304Z,4.03
2023-02-16T23:36:36.895Z,4.09
2023-02-16T23:40:47.117Z,4.12
2023-02-16T23:44:55.546Z,4.14
2023-02-16T23:49:03.655Z,4.13
2023-02-16T23:53:12.497Z,4.13
2023-02-16T23:57:21.373Z,4.11
